createdAt,value
2023-02-16T00:01:22.197Z,2.42
2023-02-16T00:03:50.091Z,2.40
2023-02-16T00:06:18.006Z,3.13
2023-02-16T00:08:46.427Z,2.13
2023-02-16T00:11:34.208Z,2.53
2023-02-16T00:14:02.113Z,2.42
2023-02-16T00:16:31.004Z,2.47
2023-02-16T00:18:58.487Z,2.17
2023-02-16T00:21:26.327Z,2.63
2023-02-16T00:23:54.305Z,2.30
2023-02-16T00:26:22.708Z,1.92
2023-02-16T00:28:52.912Z,1.95
2023-02-16T00:31:21.145Z,1.92
2023-02-16T00:33:50.358Z,1.92
2023-02-16T00:36:18.093Z,2.17
2023-02-16T00:38:45.646Z,2.15
2023-02-16T00:41:38.518Z,2.50
2023-02-16T00:44:06.605Z,1.50
2023-02-16T00:46:34.356Z,1.77
2023-02-16T00:49:04.103Z,1.63
2023-02-16T00:51:31.675Z,2.05
2023-02-16T00:53:59.223Z,2.22
2023-02-16T00:56:29.414Z,2.00
2023-02-16T00:58:57.251Z,1.98
2023-02-16T01:01:25.977Z,2.17
2023-02-16T01:03:53.917Z,1.63
2023-02-16T01:06:40.468Z,2.65
2023-02-16T01:09:30.646Z,1.60
2023-02-16T01:11:58.539Z,2.55
2023-02-16T01:14:26.704Z,1.85
2023-02-16T01:16:55.447Z,2.17
2023-02-16T01:19:23.165Z,1.88
2023-02-16T01:21:52.014Z,2.20
2023-02-16T01:24:19.913Z,2.58
2023-02-16T01:26:50.099Z,1.88
2023-02-16T01:29:18.442Z,1.73
2023-02-16T01:31:46.433Z,1.90
2023-02-16T01:34:14.717Z,1.73
2023-02-16T01:36:44.073Z,2.28
2023-02-16T01:39:14.922Z,2.10
2023-02-16T01:41:46.359Z,2.38
2023-02-16T01:44:15.148Z,1.63
2023-02-16T01:46:45.142Z,1.73
2023-02-16T01:49:13.509Z,2.08
2023-02-16T01:51:46.460Z,2.20
2023-02-16T01:54:20.605Z,2.17
2023-02-16T01:59:17.835Z,1.58
2023-02-16T02:01:48.117Z,1.50
2023-02-16T02:04:37.010Z,1.63
2023-02-16T02:07:04.727Z,1.77
2023-02-16T02:09:36.531Z,1.33
2023-02-16T02:12:07.795Z,1.60
2023-02-16T02:14:39.311Z,1.42
2023-02-16T02:17:07.753Z,2.03
2023-02-16T02:19:46.267Z,1.67
2023-02-16T02:22:45.090Z,1.95
2023-02-16T02:25:24.265Z,2.38
2023-02-16T02:27:54.954Z,1.58
2023-02-16T02:30:31.818Z,1.60
2023-02-16T02:33:04.956Z,1.95
2023-02-16T02:35:37.429Z,1.55
2023-02-16T02:38:10.848Z,1.70
2023-02-16T02:40:43.075Z,1.95
2023-02-16T02:43:15.322Z,1.67
2023-02-16T02:45:45.193Z,1.73
2023-02-16T02:48:12.903Z,1.88
2023-02-16T02:51:07.650Z,1.50
2023-02-16T02:56:21.441Z,1.75
2023-02-16T02:59:08.943Z,1.80
2023-02-16T03:01:37.902Z,1.50
2023-02-16T03:04:07.173Z,2.03
2023-02-16T03:06:35.978Z,2.15
2023-02-16T03:09:05.550Z,1.95
2023-02-16T03:11:50.827Z,1.77
2023-02-16T03:14:21.453Z,1.80
2023-02-16T03:16:50.317Z,1.70
2023-02-16T03:19:36.848Z,1.67
2023-02-16T03:22:22.761Z,1.90
2023-02-16T03:25:08.328Z,2.10
2023-02-16T03:27:56.502Z,1.58
2023-02-16T03:30:26.849Z,2.00
2023-02-16T03:32:55.058Z,2.47
2023-02-16T03:35:22.660Z,1.73
2023-02-16T03:37:50.242Z,1.40
2023-02-16T03:40:30.982Z,1.75
2023-02-16T03:42:59.489Z,1.83
2023-02-16T03:45:29.019Z,1.58
2023-02-16T03:47:56.564Z,1.95
2023-02-16T03:50:26.486Z,2.20
2023-02-16T03:53:06.683Z,2.92
2023-02-16T03:55:34.712Z,2.08
2023-02-16T03:58:02.461Z,2.70
2023-02-16T04:00:31.713Z,2.53
2023-02-16T04:02:59.199Z,2.90
2023-02-16T04:05:27.209Z,3.08
2023-02-16T04:07:55.153Z,3.55
2023-02-16T04:10:22.892Z,3.15
2023-02-16T04:12:49.464Z,3.80
2023-02-16T04:15:18.491Z,3.42
2023-02-16T04:17:47.632Z,3.75
2023-02-16T04:20:16.279Z,3.88
2023-02-16T04:22:44.145Z,5.57
2023-02-16T04:25:11.714Z,6.85
2023-02-16T04:27:41.035Z,8.48
2023-02-16T04:30:09.719Z,12.55
2023-02-16T04:32:37.346Z,11.98
2023-02-16T04:35:06.858Z,12.75
2023-02-16T04:37:34.451Z,12.10
2023-02-16T04:40:02.162Z,11.90
2023-02-16T04:42:29.729Z,13.05
2023-02-16T04:44:57.290Z,11.60
2023-02-16T04:47:26.640Z,12.13
2023-02-16T04:49:54.456Z,11.38
2023-02-16T04:52:23.384Z,14.05
2023-02-16T04:54:50.959Z,10.15
2023-02-16T04:57:19.272Z,9.65
2023-02-16T04:59:47.056Z,8.90
2023-02-16T05:02:14.890Z,7.63
2023-02-16T05:04:43.146Z,6.88
2023-02-16T05:07:10.821Z,6.80
2023-02-16T05:09:39.825Z,7.00
2023-02-16T05:12:25.369Z,7.78
2023-02-16T05:14:53.078Z,8.00
2023-02-16T05:17:23.003Z,8.35
2023-02-16T05:19:53.527Z,8.43
2023-02-16T05:22:21.604Z,10.55
2023-02-16T05:24:50.651Z,7.45
2023-02-16T05:27:19.096Z,7.82
2023-02-16T05:29:46.630Z,6.38
2023-02-16T05:32:14.508Z,6.20
2023-02-16T05:34:44.459Z,8.05
2023-02-16T05:37:12.482Z,7.13
2023-02-16T05:39:40.202Z,6.00
2023-02-16T05:42:09.441Z,6.03
2023-02-16T05:44:37.405Z,5.82
2023-02-16T05:47:05.990Z,4.95
2023-02-16T05:49:33.640Z,6.40
2023-02-16T05:52:01.254Z,6.63
2023-02-16T05:54:29.080Z,6.68
2023-02-16T05:56:56.639Z,6.82
2023-02-16T05:59:25.519Z,6.97
2023-02-16T06:01:54.019Z,6.53
2023-02-16T06:04:22.997Z,5.90
2023-02-16T06:06:50.884Z,6.90
2023-02-16T06:09:18.843Z,5.25
2023-02-16T06:11:46.489Z,6.50
2023-02-16T06:14:15.330Z,6.65
2023-02-16T06:16:45.348Z,7.15
2023-02-16T06:19:13.212Z,5.80
2023-02-16T06:21:42.005Z,5.22
2023-02-16T06:24:10.410Z,6.38
2023-02-16T06:26:38.282Z,6.47
2023-02-16T06:29:06.310Z,6.07
2023-02-16T06:31:36.200Z,6.18
2023-02-16T06:34:05.934Z,6.25
2023-02-16T06:36:34.005Z,6.80
2023-02-16T06:39:01.597Z,8.30
2023-02-16T06:41:38.010Z,6.95
2023-02-16T06:44:06.769Z,10.25
2023-02-16T06:46:34.352Z,8.65
2023-02-16T06:49:02.541Z,9.43
2023-02-16T06:51:31.429Z,8.75
2023-02-16T06:53:59.707Z,8.43
2023-02-16T06:56:27.338Z,8.55
2023-02-16T06:58:55.167Z,8.38
2023-02-16T07:01:25.772Z,7.55
2023-02-16T07:03:54.156Z,6.47
2023-02-16T07:06:21.683Z,7.57
2023-02-16T07:08:50.722Z,8.05
2023-02-16T07:11:19.332Z,7.53
2023-02-16T07:13:47.278Z,7.20
2023-02-16T07:16:15.919Z,8.23
2023-02-16T07:18:44.238Z,9.02
2023-02-16T07:21:11.876Z,8.95
2023-02-16T07:23:40.124Z,9.43
2023-02-16T07:26:08.953Z,9.95
2023-02-16T07:28:36.558Z,9.35
2023-02-16T07:31:07.733Z,9.45
2023-02-16T07:33:35.466Z,8.90
2023-02-16T07:36:02.945Z,9.35
2023-02-16T07:38:31.657Z,8.82
2023-02-16T07:40:59.308Z,8.23
2023-02-16T07:43:28.181Z,7.97
2023-02-16T07:45:55.810Z,6.70
2023-02-16T07:48:23.378Z,6.00
2023-02-16T07:50:50.911Z,6.78
2023-02-16T07:53:18.498Z,7.53
2023-02-16T07:55:46.880Z,7.30
2023-02-16T07:58:27.105Z,7.03
2023-02-16T08:00:56.608Z,7.70
2023-02-16T08:03:25.250Z,6.68
2023-02-16T08:05:52.962Z,7.13
2023-02-16T08:08:20.478Z,7.00
2023-02-16T08:10:48.117Z,7.35
2023-02-16T08:13:16.009Z,7.30
2023-02-16T08:15:44.207Z,5.57
2023-02-16T08:18:13.944Z,7.10
2023-02-16T08:21:01.521Z,6.57
2023-02-16T08:23:30.205Z,7.53
2023-02-16T08:25:59.217Z,6.35
2023-02-16T08:28:29.277Z,6.88
2023-02-16T08:30:56.875Z,6.78
2023-02-16T08:33:25.917Z,5.53
2023-02-16T08:35:54.211Z,7.07
2023-02-16T08:38:22.804Z,7.28
2023-02-16T08:40:51.246Z,8.05
2023-02-16T08:43:19.213Z,7.40
2023-02-16T08:45:47.549Z,7.55
2023-02-16T08:48:16.776Z,6.75
2023-02-16T08:50:53.314Z,7.93
2023-02-16T08:53:23.314Z,7.20
2023-02-16T08:55:54.931Z,6.78
2023-02-16T08:58:22.540Z,7.40
2023-02-16T09:00:50.512Z,7.18
2023-02-16T09:03:19.011Z,6.75
2023-02-16T09:05:48.086Z,6.93
2023-02-16T09:08:16.230Z,6.22
2023-02-16T09:10:44.246Z,7.65
2023-02-16T09:13:15.016Z,7.00
2023-02-16T09:15:43.249Z,7.47
2023-02-16T09:18:11.004Z,7.05
2023-02-16T09:20:39.270Z,7.20
2023-02-16T09:23:10.626Z,6.07
2023-02-16T09:25:39.130Z,6.32
2023-02-16T09:28:09.438Z,7.45
2023-02-16T09:30:41.273Z,6.60
2023-02-16T09:33:08.879Z,7.25
2023-02-16T09:35:39.030Z,6.88
2023-02-16T09:38:09.308Z,7.15
2023-02-16T09:40:37.641Z,7.60
2023-02-16T09:43:09.305Z,5.97
2023-02-16T09:45:40.784Z,6.72
2023-02-16T09:48:12.628Z,6.82
2023-02-16T09:50:53.391Z,5.47
2023-02-16T09:53:25.423Z,5.55
2023-02-16T09:55:58.300Z,5.40
2023-02-16T09:58:28.922Z,5.38
2023-02-16T10:00:59.660Z,6.05
2023-02-16T10:03:34.907Z,6.32
2023-02-16T10:06:10.663Z,5.15
2023-02-16T10:08:43.414Z,6.00
2023-02-16T10:11:38.046Z,5.60
2023-02-16T10:14:08.376Z,4.97
2023-02-16T10:16:38.959Z,5.18
2023-02-16T10:19:12.582Z,5.60
2023-02-16T10:21:43.517Z,5.22
2023-02-16T10:24:13.425Z,6.18
2023-02-16T10:26:44.370Z,5.30
2023-02-16T10:29:15.750Z,5.50
2023-02-16T10:31:44.893Z,6.18
2023-02-16T10:34:21.963Z,5.93
2023-02-16T10:36:58.038Z,5.38
2023-02-16T10:39:29.305Z,5.13
2023-02-16T10:41:59.375Z,5.47
2023-02-16T10:44:30.390Z,5.43
2023-02-16T10:47:00.874Z,5.97
2023-02-16T10:49:32.332Z,7.07
2023-02-16T10:52:01.067Z,6.00
2023-02-16T10:54:31.408Z,5.78
2023-02-16T10:57:01.503Z,7.00
2023-02-16T10:59:32.233Z,6.47
2023-02-16T11:02:01.416Z,6.07
2023-02-16T11:04:33.173Z,6.00
2023-02-16T11:07:05.419Z,4.93
2023-02-16T11:09:34.368Z,5.72
2023-02-16T11:12:01.905Z,6.03
2023-02-16T11:14:31.636Z,5.97
2023-02-16T11:17:07.372Z,5.88
2023-02-16T11:19:35.445Z,6.20
2023-02-16T11:22:03.382Z,6.63
2023-02-16T11:24:32.094Z,6.13
2023-02-16T11:27:06.199Z,7.43
2023-02-16T11:29:34.112Z,5.93
2023-02-16T11:32:06.277Z,5.97
2023-02-16T11:34:35.479Z,5.93
2023-02-16T11:37:04.643Z,5.10
2023-02-16T11:39:35.457Z,5.97
2023-02-16T11:42:06.110Z,6.10
2023-02-16T11:44:34.613Z,6.38
2023-02-16T11:47:03.931Z,5.80
2023-02-16T11:49:33.131Z,6.00
2023-02-16T11:52:01.333Z,5.57
2023-02-16T11:54:28.954Z,5.50
2023-02-16T11:57:04.727Z,5.85
2023-02-16T11:59:35.501Z,8.07
2023-02-16T12:02:26.072Z,5.40
2023-02-16T12:05:03.062Z,5.75
2023-02-16T12:07:34.377Z,6.00
2023-02-16T12:10:04.547Z,5.50
2023-02-16T12:12:37.263Z,5.65
2023-02-16T12:15:07.660Z,6.35
2023-02-16T12:17:43.201Z,6.18
2023-02-16T12:20:17.380Z,6.10
2023-02-16T12:22:47.266Z,7.65
2023-02-16T12:25:24.430Z,6.10
2023-02-16T12:27:55.962Z,5.35
2023-02-16T12:30:29.184Z,5.25
2023-02-16T12:33:02.109Z,5.63
2023-02-16T12:35:39.235Z,5.95
2023-02-16T12:38:14.468Z,5.38
2023-02-16T12:40:48.562Z,6.43
2023-02-16T12:43:31.166Z,6.07
2023-02-16T12:46:02.861Z,5.85
2023-02-16T12:48:36.544Z,6.53
2023-02-16T12:51:07.443Z,6.40
2023-02-16T12:53:39.604Z,6.13
2023-02-16T12:56:12.557Z,6.35
2023-02-16T12:58:43.900Z,5.57
2023-02-16T13:01:14.605Z,6.53
2023-02-16T13:03:46.671Z,6.05
2023-02-16T13:06:21.581Z,5.88
2023-02-16T13:08:51.611Z,6.20
2023-02-16T13:11:23.127Z,7.38
2023-02-16T13:13:53.710Z,6.97
2023-02-16T13:16:30.436Z,7.18
2023-02-16T13:18:58.880Z,7.18
2023-02-16T13:21:50.532Z,6.47
2023-02-16T13:24:23.533Z,6.18
2023-02-16T13:26:58.264Z,6.47
2023-02-16T13:29:39.157Z,4.90
2023-02-16T13:34:54.610Z,5.28
2023-02-16T13:37:25.665Z,5.45
2023-02-16T13:40:01.994Z,5.53
2023-02-16T13:42:33.901Z,6.40
2023-02-16T13:45:03.763Z,6.43
2023-02-16T13:47:34.373Z,6.63
2023-02-16T13:50:04.644Z,6.90
2023-02-16T13:52:34.113Z,6.30
2023-02-16T13:55:05.784Z,7.50
2023-02-16T13:57:53.474Z,7.75
2023-02-16T14:00:30.037Z,8.27
2023-02-16T14:02:58.912Z,9.18
2023-02-16T14:05:29.233Z,8.50
2023-02-16T14:08:14.658Z,8.73
2023-02-16T14:11:00.923Z,8.57
2023-02-16T14:13:31.658Z,9.32
2023-02-16T14:16:03.467Z,9.60
2023-02-16T14:18:32.944Z,8.55
2023-02-16T14:21:04.960Z,9.48
2023-02-16T14:23:34.797Z,8.65
2023-02-16T14:26:03.580Z,9.88
2023-02-16T14:28:50.675Z,9.48
2023-02-16T14:31:22.840Z,7.07
2023-02-16T14:33:55.728Z,8.15
2023-02-16T14:36:26.301Z,8.63
2023-02-16T14:38:58.445Z,7.35
2023-02-16T14:41:27.735Z,8.23
2023-02-16T14:44:00.750Z,9.88
2023-02-16T14:46:43.169Z,7.90
2023-02-16T14:49:35.738Z,7.18
2023-02-16T14:52:18.742Z,7.07
2023-02-16T14:55:08.197Z,7.70
2023-02-16T14:57:37.751Z,8.55
2023-02-16T15:00:13.626Z,9.57
2023-02-16T15:02:43.202Z,8.10
2023-02-16T15:05:17.763Z,9.18
2023-02-16T15:07:47.711Z,8.07
2023-02-16T15:10:18.397Z,8.68
2023-02-16T15:12:49.078Z,8.63
2023-02-16T15:15:20.430Z,9.30
2023-02-16T15:17:50.063Z,10.23
2023-02-16T15:20:21.073Z,9.45
2023-02-16T15:22:49.812Z,8.85
2023-02-16T15:25:22.401Z,7.78
2023-02-16T15:27:53.795Z,8.30
2023-02-16T15:30:23.531Z,8.95
2023-02-16T15:32:57.313Z,9.60
2023-02-16T15:35:27.504Z,9.50
2023-02-16T15:38:02.477Z,8.27
2023-02-16T15:40:32.943Z,9.07
2023-02-16T15:43:04.801Z,8.48
2023-02-16T15:45:35.312Z,7.97
2023-02-16T15:48:25.815Z,7.95
2023-02-16T15:50:54.579Z,7.55
2023-02-16T15:53:29.552Z,7.88
2023-02-16T15:55:57.175Z,9.15
2023-02-16T15:58:24.953Z,8.00
2023-02-16T16:00:54.326Z,9.70
2023-02-16T16:03:23.815Z,8.13
2023-02-16T16:05:58.342Z,7.40
2023-02-16T16:08:27.348Z,7.72
2023-02-16T16:10:55.603Z,8.00
2023-02-16T16:13:24.857Z,9.00
2023-02-16T16:15:53.256Z,8.23
2023-02-16T16:18:39.689Z,7.88
2023-02-16T16:21:15.113Z,8.13
2023-02-16T16:23:42.895Z,7.72
2023-02-16T16:26:20.189Z,8.45
2023-02-16T16:28:47.781Z,8.70
2023-02-16T16:31:16.228Z,8.30
2023-02-16T16:33:53.628Z,7.63
2023-02-16T16:36:28.178Z,8.50
2023-02-16T16:39:09.859Z,9.70
2023-02-16T16:41:37.441Z,9.25
2023-02-16T16:44:05.160Z,9.60
2023-02-16T16:46:33.120Z,8.50
2023-02-16T16:49:03.433Z,8.98
2023-02-16T16:51:41.054Z,9.70
2023-02-16T16:54:11.277Z,9.63
2023-02-16T16:56:39.501Z,9.65
2023-02-16T16:59:07.870Z,9.32
2023-02-16T17:01:35.748Z,9.55
2023-02-16T17:04:03.744Z,10.07
2023-02-16T17:06:31.238Z,10.13
2023-02-16T17:09:03.367Z,9.52
2023-02-16T17:11:35.907Z,9.73
2023-02-16T17:14:08.362Z,9.50
2023-02-16T17:16:37.993Z,8.90
2023-02-16T17:19:05.727Z,8.80
2023-02-16T17:21:33.441Z,8.50
2023-02-16T17:24:02.271Z,6.80
2023-02-16T17:26:29.834Z,7.88
2023-02-16T17:28:57.371Z,8.60
2023-02-16T17:31:25.200Z,7.72
2023-02-16T17:33:53.129Z,9.85
2023-02-16T17:36:21.280Z,8.43
2023-02-16T17:38:49.940Z,8.10
2023-02-16T17:41:21.016Z,8.18
2023-02-16T17:43:48.939Z,8.30
2023-02-16T17:46:17.238Z,8.05
2023-02-16T17:48:44.978Z,8.15
2023-02-16T17:51:17.368Z,8.90
2023-02-16T17:53:44.841Z,7.55
2023-02-16T17:56:13.828Z,9.05
2023-02-16T17:58:42.842Z,9.60
2023-02-16T18:01:12.173Z,9.07
2023-02-16T18:03:39.777Z,9.18
2023-02-16T18:06:07.687Z,8.88
2023-02-16T18:08:35.547Z,8.65
2023-02-16T18:11:04.425Z,8.65
2023-02-16T18:13:32.722Z,9.50
2023-02-16T18:16:04.130Z,9.38
2023-02-16T18:18:34.788Z,8.98
2023-02-16T18:21:02.460Z,9.18
2023-02-16T18:23:30.430Z,10.30
2023-02-16T18:25:58.642Z,8.38
2023-02-16T18:28:27.591Z,8.85
2023-02-16T18:30:55.327Z,8.68
2023-02-16T18:33:24.672Z,9.32
2023-02-16T18:35:53.112Z,9.10
2023-02-16T18:38:22.060Z,9.05
2023-02-16T18:40:51.254Z,10.13
2023-02-16T18:43:18.776Z,9.85
2023-02-16T18:45:46.405Z,10.07
2023-02-16T18:48:14.079Z,8.80
2023-02-16T18:50:42.895Z,8.68
2023-02-16T18:53:10.683Z,8.40
2023-02-16T18:55:38.456Z,9.68
2023-02-16T18:58:08.279Z,9.57
2023-02-16T19:00:36.828Z,9.88
2023-02-16T19:03:04.714Z,9.60
2023-02-16T19:05:32.963Z,9.20
2023-02-16T19:08:01.852Z,9.15
2023-02-16T19:10:30.231Z,10.38
2023-02-16T19:12:57.817Z,9.88
2023-02-16T19:15:25.645Z,10.02
2023-02-16T19:17:53.533Z,10.15
2023-02-16T19:20:21.293Z,10.40
2023-02-16T19:22:49.149Z,9.60
2023-02-16T19:25:18.050Z,10.48
2023-02-16T19:27:45.599Z,10.73
2023-02-16T19:30:13.243Z,10.68
2023-02-16T19:32:41.741Z,10.45
2023-02-16T19:35:09.457Z,9.98
2023-02-16T19:37:37.572Z,11.13
2023-02-16T19:40:06.995Z,10.27
2023-02-16T19:42:35.997Z,10.40
2023-02-16T19:45:04.148Z,10.88
2023-02-16T19:47:31.828Z,10.93
2023-02-16T19:49:59.543Z,10.15
2023-02-16T19:52:27.546Z,9.95
2023-02-16T19:54:55.298Z,9.55
2023-02-16T19:57:23.296Z,10.77
2023-02-16T20:00:17.102Z,10.55
2023-02-16T20:02:44.716Z,8.77
2023-02-16T20:05:13.117Z,9.43
2023-02-16T20:07:40.902Z,10.35
2023-02-16T20:10:08.729Z,11.20
2023-02-16T20:12:36.234Z,9.60
2023-02-16T20:15:06.597Z,10.75
2023-02-16T20:17:34.320Z,10.40
2023-02-16T20:20:02.045Z,10.55
2023-02-16T20:22:29.833Z,9.75
2023-02-16T20:24:57.421Z,11.52
2023-02-16T20:27:25.388Z,10.93
2023-02-16T20:29:53.284Z,11.93
2023-02-16T20:32:24.337Z,11.20
2023-02-16T20:34:52.362Z,11.07
2023-02-16T20:37:20.177Z,10.98
2023-02-16T20:39:49.069Z,9.93
2023-02-16T20:42:16.893Z,10.88
2023-02-16T20:44:44.630Z,10.98
2023-02-16T20:47:12.474Z,11.65
2023-02-16T20:49:45.708Z,10.80
2023-02-16T20:52:18.761Z,12.23
2023-02-16T20:54:46.551Z,11.65
2023-02-16T20:57:26.372Z,11.50
2023-02-16T20:59:54.621Z,10.48
2023-02-16T21:02:22.298Z,11.48
2023-02-16T21:04:51.262Z,13.02
2023-02-16T21:07:18.919Z,10.82
2023-02-16T21:09:47.239Z,12.10
2023-02-16T21:12:15.237Z,11.82
2023-02-16T21:14:45.140Z,12.05
2023-02-16T21:17:14.327Z,11.52
2023-02-16T21:19:42.158Z,10.05
2023-02-16T21:22:12.991Z,11.77
2023-02-16T21:24:40.855Z,11.27
2023-02-16T21:27:08.477Z,10.75
2023-02-16T21:29:36.079Z,12.15
2023-02-16T21:32:03.956Z,11.20
2023-02-16T21:34:32.291Z,10.18
2023-02-16T21:36:59.755Z,13.68
2023-02-16T21:39:43.323Z,11.27
2023-02-16T21:42:11.045Z,11.93
2023-02-16T21:44:45.306Z,10.57
2023-02-16T21:47:30.437Z,12.40
2023-02-16T21:50:01.180Z,11.23
2023-02-16T21:52:28.773Z,12.10
2023-02-16T21:55:15.398Z,12.98
2023-02-16T21:57:43.304Z,12.30
2023-02-16T22:00:15.498Z,13.55
2023-02-16T22:02:43.078Z,11.93
2023-02-16T22:05:13.277Z,13.05
2023-02-16T22:07:41.868Z,13.38
2023-02-16T22:10:11.293Z,11.20
2023-02-16T22:12:39.305Z,11.77
2023-02-16T22:15:07.193Z,12.63
2023-02-16T22:17:34.723Z,11.15
2023-02-16T22:20:02.209Z,12.77
2023-02-16T22:22:30.384Z,12.02
2023-02-16T22:24:57.963Z,12.15
2023-02-16T22:27:29.268Z,12.23
2023-02-16T22:29:56.813Z,12.98
2023-02-16T22:32:24.293Z,13.02
2023-02-16T22:34:51.952Z,12.90
2023-02-16T22:37:19.561Z,12.35
2023-02-16T22:39:47.105Z,12.55
2023-02-16T22:42:14.662Z,11.07
2023-02-16T22:44:43.645Z,13.25
2023-02-16T22:47:11.198Z,12.45
2023-02-16T22:49:38.708Z,12.07
2023-02-16T22:52:06.431Z,12.68
2023-02-16T22:54:33.960Z,12.52
2023-02-16T22:57:01.442Z,12.25
2023-02-16T22:59:28.956Z,13.00
2023-02-16T23:02:00.458Z,11.55
2023-02-16T23:04:28.028Z,11.93
2023-02-16T23:06:57.093Z,11.30
2023-02-16T23:09:25.006Z,13.05
2023-02-16T23:11:52.571Z,12.10
2023-02-16T23:14:20.721Z,12.82
2023-02-16T23:16:49.523Z,12.60
2023-02-16T23:19:19.944Z,11.30
2023-02-16T23:21:47.538Z,11.80
2023-02-16T23:24:15.948Z,12.60
2023-02-16T23:26:43.541Z,11.75
2023-02-16T23:29:11.436Z,12.93
2023-02-16T23:31:40.231Z,14.20
2023-02-16T23:34:08.706Z,12.80
2023-02-16T23:36:38.200Z,13.07
2023-02-16T23:39:07.053Z,13.32
2023-02-16T23:41:34.724Z,12.18
2023-02-16T23:44:02.223Z,11.90
2023-02-16T23:46:30.012Z,13.55
2023-02-16T23:48:57.663Z,11.43
2023-02-16T23:51:25.571Z,12.82
2023-02-16T23:53:54.489Z,13.40
2023-02-16T23:56:23.141Z,12.70
2023-02-16T23:58:50.940Z,13.00
